This is the latest recevied weather packets stored in our database for station/object N7TUG-8. If no packets are shown the sender has not sent any weather packets the latest 10 day(s).
| Time | Temp. | Humidity | Pressure | Rain* | Wind** | Luminosity | Snow |
|---|---|---|---|---|---|---|---|
| 1778073291 | 12.78° C | 88% | 1018.8 hPa | 0 mm | 1.79 m/s, 152° | - | - |
| 1778072882 | 12.78° C | 87% | 1018.8 hPa | 0 mm | 1.79 m/s, 162° | - | - |
| 1778072526 | 12.78° C | 89% | 1018.6 hPa | 0 mm | 1.34 m/s, 163° | - | - |
| 1778072131 | 12.22° C | 89% | 1018.2 hPa | 0 mm | 2.68 m/s, 127° | - | - |
| 1778071641 | 12.78° C | 88% | 1018.5 hPa | 0 mm | 2.24 m/s, 160° | - | - |
| 1778071271 | 12.78° C | 87% | 1018.5 hPa | 0 mm | 2.24 m/s, 168° | - | - |
| 1778070836 | 12.78° C | 87% | 1018.4 hPa | 0 mm | 2.24 m/s, 158° | - | - |
| 1778070442 | 12.78° C | 87% | 1018.2 hPa | 0 mm | 1.79 m/s, 158° | - | - |
| 1778069886 | 12.78° C | 87% | 1018.2 hPa | 0 mm | 1.79 m/s, 150° | - | - |
| 1778069691 | 12.78° C | 87% | 1018.1 hPa | 0 mm | 2.24 m/s, 145° | - | - |
| 1778069116 | 12.78° C | 87% | 1018.2 hPa | 0 mm | 1.79 m/s, 141° | - | - |
| 1778068867 | 12.78° C | 86% | 1018.1 hPa | 0 mm | 2.24 m/s, 145° | - | - |
| 1778068300 | 12.78° C | 86% | 1018.1 hPa | 0 mm | 1.79 m/s, 150° | - | - |
| 1778067391 | 12.78° C | 87% | 1017.9 hPa | 0 mm | 1.79 m/s, 126° | - | - |
| 1778067347 | 12.78° C | 87% | 1017.9 hPa | 0 mm | 1.79 m/s, 126° | - | - |
| 1778066606 | 12.78° C | 87% | 1017.8 hPa | 0 mm | 2.24 m/s, 127° | - | - |
| 1778065726 | 12.78° C | 88% | 1017.8 hPa | 0 mm | 1.79 m/s, 145° | - | - |
| 1778065631 | 12.78° C | 88% | 1017.8 hPa | 0 mm | 1.79 m/s, 145° | - | - |
| 1778064926 | 12.78° C | 87% | 1017.7 hPa | 0 mm | 2.24 m/s, 140° | - | - |
| 1778064762 | 12.78° C | 87% | 1017.7 hPa | 0 mm | 1.79 m/s, 145° | - | - |
| 1778064041 | 12.78° C | 86% | 1017.6 hPa | 0 mm | 1.79 m/s, 154° | - | - |
| 1778063991 | 12.78° C | 87% | 1017.7 hPa | 0 mm | 1.34 m/s, 153° | - | - |
| 1778063171 | 12.78° C | 86% | 1017.6 hPa | 0 mm | 1.79 m/s, 148° | - | - |
| 1778062211 | 12.78° C | 86% | 1017.6 hPa | 0 mm | 2.24 m/s, 156° | - | - |
| 1778061531 | 12.78° C | 86% | 1017.5 hPa | 0 mm | 1.79 m/s, 155° | - | - |
* Rain latest hour (hover to see other rain measurements)
** Current wind speed in m/s (hover to see current wind gust speed)